Terminal Aerodrome Forecast
Issued by NWS

Home | Current Version | Previous Version | Text Only | Print | Product List | Glossary Off
Versions: 1 2 3 4 5 6 7 8 9 10 11 12 13 14 15 16 17 18 19

000
FTUS43 KFGF 232300
TAFBJI
TAF
KBJI 232339Z 2400/2424 28006KT P6SM OVC014
     FM240300 31012KT P6SM OVC007
     FM240400 31015G22KT 4SM -SN BKN012=

USA.gov is the U.S. government's official web portal to all federal, state and local government web resources and services.